createdAt,value
2022-11-12T00:00:53.782Z,10.50
2022-11-12T00:03:21.980Z,9.68
2022-11-12T00:05:50.838Z,10.27
2022-11-12T00:08:18.642Z,10.18
2022-11-12T00:10:46.521Z,10.90
2022-11-12T00:13:15.957Z,10.45
2022-11-12T00:15:43.765Z,10.18
2022-11-12T00:18:11.386Z,10.68
2022-11-12T00:20:39.056Z,11.10
2022-11-12T00:23:06.759Z,11.10
2022-11-12T00:25:34.491Z,11.27
2022-11-12T00:28:02.611Z,11.73
2022-11-12T00:30:31.642Z,9.80
2022-11-12T00:33:02.202Z,9.80
2022-11-12T00:35:29.956Z,11.13
2022-11-12T00:37:57.887Z,9.93
2022-11-12T00:40:25.710Z,10.13
2022-11-12T00:42:55.195Z,10.73
2022-11-12T00:45:23.061Z,10.70
2022-11-12T00:47:54.735Z,11.73
2022-11-12T00:50:22.403Z,10.30
2022-11-12T00:52:52.436Z,10.55
2022-11-12T00:55:20.140Z,11.52
2022-11-12T00:57:47.943Z,10.70
2022-11-12T01:00:16.672Z,9.85
2022-11-12T01:02:49.343Z,10.88
2022-11-12T01:05:20.030Z,10.73
2022-11-12T01:07:51.789Z,8.95
2022-11-12T01:10:22.503Z,11.02
2022-11-12T01:12:50.152Z,9.80
2022-11-12T01:15:17.772Z,10.73
2022-11-12T01:17:45.339Z,9.98
2022-11-12T01:20:13.047Z,9.68
2022-11-12T01:22:42.165Z,10.35
2022-11-12T01:25:10.017Z,10.05
2022-11-12T01:27:37.577Z,10.30
2022-11-12T01:30:05.904Z,9.15
2022-11-12T01:32:35.703Z,9.95
2022-11-12T01:35:03.296Z,9.23
2022-11-12T01:37:31.058Z,10.57
2022-11-12T01:40:00.022Z,8.32
2022-11-12T01:42:29.221Z,9.45
2022-11-12T01:44:56.955Z,9.48
2022-11-12T01:47:26.545Z,9.85
2022-11-12T01:49:57.385Z,8.85
2022-11-12T01:52:27.942Z,8.70
2022-11-12T01:54:58.573Z,8.68
2022-11-12T01:57:34.448Z,9.05
2022-11-12T02:00:06.387Z,8.63
2022-11-12T02:02:34.162Z,8.57
2022-11-12T02:05:02.401Z,8.05
2022-11-12T02:07:32.056Z,9.23
2022-11-12T02:10:00.994Z,8.55
2022-11-12T02:12:47.486Z,8.75
2022-11-12T02:15:15.228Z,8.18
2022-11-12T02:17:43.058Z,9.68
2022-11-12T02:20:11.771Z,9.88
2022-11-12T02:22:41.007Z,8.82
2022-11-12T02:25:10.542Z,9.30
2022-11-12T02:27:38.213Z,8.50
2022-11-12T02:30:06.470Z,8.52
2022-11-12T02:32:34.393Z,7.60
2022-11-12T02:35:02.108Z,9.13
2022-11-12T02:37:29.700Z,8.45
2022-11-12T02:39:58.649Z,8.48
2022-11-12T02:42:26.376Z,9.00
2022-11-12T02:44:54.084Z,8.48
2022-11-12T02:47:21.730Z,7.40
2022-11-12T02:49:49.341Z,8.30
2022-11-12T02:52:16.952Z,8.07
2022-11-12T02:54:44.561Z,8.05
2022-11-12T02:57:13.686Z,8.30
2022-11-12T02:59:41.333Z,7.50
2022-11-12T03:02:08.896Z,7.45
2022-11-12T03:04:36.538Z,8.73
2022-11-12T03:07:04.246Z,8.10
2022-11-12T03:09:32.050Z,7.70
2022-11-12T03:11:59.676Z,7.38
2022-11-12T03:14:28.684Z,8.15
2022-11-12T03:16:56.432Z,7.88
2022-11-12T03:19:24.148Z,8.30
2022-11-12T03:21:51.774Z,10.38
2022-11-12T03:24:19.479Z,7.85
2022-11-12T03:26:47.215Z,8.25
2022-11-12T03:29:14.796Z,8.23
2022-11-12T03:31:43.883Z,8.50
2022-11-12T03:34:12.097Z,8.07
2022-11-12T03:36:39.860Z,8.02
2022-11-12T03:39:07.464Z,9.55
2022-11-12T03:41:35.087Z,8.90
2022-11-12T03:44:02.703Z,7.72
2022-11-12T03:46:30.300Z,9.38
2022-11-12T03:49:00.406Z,8.55
2022-11-12T03:51:27.996Z,10.45
2022-11-12T03:53:55.664Z,11.48
2022-11-12T03:56:23.285Z,12.75
2022-11-12T03:58:51.115Z,15.88
2022-11-12T04:01:18.772Z,10.05
2022-11-12T04:03:46.480Z,11.60
2022-11-12T04:06:33.140Z,14.57
2022-11-12T04:09:00.902Z,9.57
2022-11-12T04:11:28.542Z,9.40
2022-11-12T04:13:55.166Z,15.13
2022-11-12T04:16:40.992Z,18.80
2022-11-12T04:21:56.297Z,8.23
2022-11-12T04:24:45.770Z,7.07
2022-11-12T04:27:15.018Z,9.73
2022-11-12T04:30:01.926Z,10.40
2022-11-12T04:32:30.098Z,9.95
2022-11-12T04:34:57.771Z,8.85
2022-11-12T04:37:27.545Z,9.05
2022-11-12T04:39:55.294Z,7.35
2022-11-12T04:42:40.474Z,9.05
2022-11-12T04:45:08.822Z,12.27
2022-11-12T04:47:37.362Z,10.15
2022-11-12T04:50:05.937Z,8.48
2022-11-12T04:52:35.043Z,6.88
2022-11-12T04:55:02.708Z,7.70
2022-11-12T04:57:30.464Z,6.70
2022-11-12T04:59:58.071Z,7.70
2022-11-12T05:02:25.778Z,6.82
2022-11-12T05:04:53.385Z,6.78
2022-11-12T05:07:21.126Z,6.43
2022-11-12T05:09:50.198Z,6.50
2022-11-12T05:12:17.969Z,6.95
2022-11-12T05:14:45.568Z,6.22
2022-11-12T05:17:13.186Z,6.60
2022-11-12T05:19:41.407Z,6.30
2022-11-12T05:22:21.867Z,6.75
2022-11-12T05:24:56.368Z,6.20
2022-11-12T05:27:23.962Z,7.00
2022-11-12T05:29:51.579Z,7.45
2022-11-12T05:32:19.509Z,7.20
2022-11-12T05:34:47.347Z,7.20
2022-11-12T05:37:15.542Z,8.90
2022-11-12T05:39:43.351Z,8.40
2022-11-12T05:42:13.808Z,13.05
2022-11-12T05:44:42.014Z,11.10
2022-11-12T05:47:09.713Z,9.02
2022-11-12T05:49:37.309Z,9.48
2022-11-12T05:52:05.124Z,20.65
2022-11-12T05:54:33.278Z,8.00
2022-11-12T05:57:00.946Z,7.13
2022-11-12T05:59:29.961Z,9.82
2022-11-12T06:01:57.678Z,7.55
2022-11-12T06:04:26.230Z,7.05
2022-11-12T06:06:53.877Z,7.90
2022-11-12T06:09:21.565Z,7.75
2022-11-12T06:11:49.140Z,7.28
2022-11-12T06:14:16.772Z,8.27
2022-11-12T06:16:45.862Z,7.70
2022-11-12T06:19:13.492Z,6.35
2022-11-12T06:21:41.100Z,6.93
2022-11-12T06:24:09.070Z,7.22
2022-11-12T06:26:38.060Z,6.15
2022-11-12T06:29:06.012Z,6.90
2022-11-12T06:31:33.625Z,6.63
2022-11-12T06:34:03.215Z,7.40
2022-11-12T06:36:30.929Z,8.20
2022-11-12T06:38:59.000Z,7.90
2022-11-12T06:41:26.663Z,14.02
2022-11-12T06:43:54.261Z,7.30
2022-11-12T06:46:21.904Z,14.70
2022-11-12T06:48:49.560Z,20.88
2022-11-12T06:51:19.334Z,5.85
2022-11-12T06:53:47.212Z,6.30
2022-11-12T06:56:15.229Z,10.82
2022-11-12T06:58:42.953Z,10.32
2022-11-12T07:01:12.480Z,7.53
2022-11-12T07:03:41.641Z,6.53
2022-11-12T07:06:10.662Z,6.85
2022-11-12T07:08:39.918Z,6.93
2022-11-12T07:11:08.228Z,8.35
2022-11-12T07:13:36.524Z,7.13
2022-11-12T07:16:04.934Z,7.90
2022-11-12T07:18:32.606Z,7.05
2022-11-12T07:21:00.813Z,8.00
2022-11-12T07:23:29.084Z,7.82
2022-11-12T07:25:58.778Z,7.15
2022-11-12T07:28:26.841Z,7.25
2022-11-12T07:30:58.866Z,7.93
2022-11-12T07:33:27.128Z,7.57
2022-11-12T07:35:58.291Z,6.60
2022-11-12T07:38:26.464Z,7.60
2022-11-12T07:40:59.320Z,8.13
2022-11-12T07:43:28.367Z,7.97
2022-11-12T07:45:58.563Z,8.52
2022-11-12T07:48:26.596Z,7.60
2022-11-12T07:51:00.100Z,7.05
2022-11-12T07:53:27.896Z,6.85
2022-11-12T07:55:56.096Z,7.78
2022-11-12T07:58:23.976Z,7.50
2022-11-12T08:00:53.596Z,8.32
2022-11-12T08:03:21.613Z,8.50
2022-11-12T08:05:49.487Z,8.52
2022-11-12T08:08:17.437Z,7.10
2022-11-12T08:10:45.089Z,8.10
2022-11-12T08:13:12.729Z,7.78
2022-11-12T08:15:40.436Z,8.35
2022-11-12T08:18:09.485Z,8.25
2022-11-12T08:20:37.165Z,7.55
2022-11-12T08:23:04.889Z,7.20
2022-11-12T08:25:32.569Z,8.43
2022-11-12T08:28:00.546Z,7.05
2022-11-12T08:30:28.740Z,8.13
2022-11-12T08:32:57.246Z,7.63
2022-11-12T08:35:26.821Z,7.72
2022-11-12T08:37:58.537Z,8.73
2022-11-12T08:40:26.519Z,7.05
2022-11-12T08:43:00.777Z,7.45
2022-11-12T08:45:28.747Z,8.35
2022-11-12T08:47:59.843Z,8.60
2022-11-12T08:50:29.142Z,8.23
2022-11-12T08:53:00.142Z,8.40
2022-11-12T08:55:27.970Z,9.52
2022-11-12T08:57:55.975Z,9.27
2022-11-12T09:00:23.667Z,8.57
2022-11-12T09:02:51.364Z,9.65
2022-11-12T09:05:19.022Z,9.13
2022-11-12T09:07:50.711Z,10.52
2022-11-12T09:10:18.733Z,10.60
2022-11-12T09:12:46.399Z,9.48
2022-11-12T09:18:03.247Z,8.25
2022-11-12T09:20:31.256Z,8.43
2022-11-12T09:23:03.915Z,9.15
2022-11-12T09:25:31.590Z,8.15
2022-11-12T09:27:59.210Z,8.85
2022-11-12T09:30:26.848Z,9.88
2022-11-12T09:32:58.408Z,8.65
2022-11-12T09:35:26.039Z,8.95
2022-11-12T09:37:54.245Z,7.97
2022-11-12T09:40:23.630Z,8.48
2022-11-12T09:42:53.432Z,6.72
2022-11-12T09:45:25.760Z,8.40
2022-11-12T09:47:55.135Z,6.65
2022-11-12T09:50:25.898Z,7.47
2022-11-12T09:52:57.635Z,7.25
2022-11-12T09:55:30.225Z,7.00
2022-11-12T09:57:58.051Z,7.22
2022-11-12T10:00:25.674Z,7.10
2022-11-12T10:02:54.843Z,6.85
2022-11-12T10:05:26.312Z,7.60
2022-11-12T10:08:00.820Z,7.43
2022-11-12T10:10:35.687Z,5.77
2022-11-12T10:13:12.159Z,7.10
2022-11-12T10:16:01.864Z,6.70
2022-11-12T10:18:32.650Z,7.70
2022-11-12T10:21:02.862Z,6.90
2022-11-12T10:23:33.920Z,5.97
2022-11-12T10:26:10.576Z,7.63
2022-11-12T10:28:40.539Z,6.95
2022-11-12T10:31:12.753Z,7.10
2022-11-12T10:33:40.624Z,6.63
2022-11-12T10:36:24.806Z,6.70
2022-11-12T10:38:54.003Z,5.60
2022-11-12T10:41:24.326Z,5.75
2022-11-12T10:43:54.414Z,6.25
2022-11-12T10:46:23.063Z,6.53
2022-11-12T10:48:55.134Z,6.55
2022-11-12T10:51:27.950Z,7.80
2022-11-12T10:53:55.585Z,6.68
2022-11-12T10:56:26.528Z,6.40
2022-11-12T10:59:15.165Z,5.35
2022-11-12T11:01:45.719Z,5.55
2022-11-12T11:04:18.144Z,5.70
2022-11-12T11:06:45.966Z,5.97
2022-11-12T11:09:18.336Z,5.30
2022-11-12T11:11:56.537Z,5.95
2022-11-12T11:14:34.130Z,5.18
2022-11-12T11:17:04.418Z,5.57
2022-11-12T11:19:35.220Z,5.85
2022-11-12T11:22:26.727Z,5.25
2022-11-12T11:25:12.030Z,5.60
2022-11-12T11:27:42.798Z,6.68
2022-11-12T11:30:11.597Z,6.45
2022-11-12T11:32:46.608Z,6.45
2022-11-12T11:35:19.845Z,6.68
2022-11-12T11:37:58.260Z,6.40
2022-11-12T11:40:28.938Z,6.55
2022-11-12T11:43:05.881Z,6.97
2022-11-12T11:45:36.317Z,5.63
2022-11-12T11:48:10.113Z,8.32
2022-11-12T11:50:40.592Z,6.88
2022-11-12T11:53:15.088Z,6.70
2022-11-12T11:55:49.551Z,7.33
2022-11-12T11:58:28.504Z,6.57
2022-11-12T12:01:01.504Z,6.28
2022-11-12T12:03:33.101Z,6.15
2022-11-12T12:06:18.535Z,6.88
2022-11-12T12:08:53.098Z,7.10
2022-11-12T12:11:22.549Z,8.20
2022-11-12T12:14:01.038Z,7.80
2022-11-12T12:16:34.753Z,7.32
2022-11-12T12:19:06.749Z,7.63
2022-11-12T12:21:38.932Z,8.18
2022-11-12T12:24:10.404Z,7.75
2022-11-12T12:26:41.283Z,8.45
2022-11-12T12:29:13.876Z,8.10
2022-11-12T12:31:42.986Z,8.68
2022-11-12T12:34:15.655Z,6.80
2022-11-12T12:36:46.401Z,7.72
2022-11-12T12:39:15.416Z,7.15
2022-11-12T12:41:46.605Z,6.63
2022-11-12T12:44:15.563Z,7.18
2022-11-12T12:46:46.300Z,7.63
2022-11-12T12:49:15.857Z,6.55
2022-11-12T12:51:43.497Z,6.35
2022-11-12T12:54:41.515Z,6.82
2022-11-12T12:57:28.120Z,6.60
2022-11-12T13:00:25.390Z,7.13
2022-11-12T13:02:53.222Z,7.43
2022-11-12T13:05:25.533Z,7.13
2022-11-12T13:07:53.268Z,6.75
2022-11-12T13:10:51.130Z,7.05
2022-11-12T13:13:32.517Z,6.50
2022-11-12T13:16:02.641Z,6.07
2022-11-12T13:18:48.793Z,6.53
2022-11-12T13:21:17.220Z,6.60
2022-11-12T13:23:59.928Z,8.52
2022-11-12T13:26:50.444Z,6.60
2022-11-12T13:29:38.790Z,6.40
2022-11-12T13:32:21.251Z,7.65
2022-11-12T13:34:50.232Z,6.80
2022-11-12T13:37:20.661Z,7.32
2022-11-12T13:39:48.366Z,6.28
2022-11-12T13:42:34.895Z,7.32
2022-11-12T13:45:02.841Z,7.25
2022-11-12T13:47:30.594Z,7.82
2022-11-12T13:50:02.037Z,7.85
2022-11-12T13:52:29.813Z,6.60
2022-11-12T13:55:04.304Z,6.05
2022-11-12T13:57:33.185Z,7.53
2022-11-12T14:00:11.210Z,6.93
2022-11-12T14:02:41.615Z,6.07
2022-11-12T14:05:17.831Z,7.55
2022-11-12T14:07:50.499Z,6.80
2022-11-12T14:10:25.322Z,6.95
2022-11-12T14:13:00.265Z,8.13
2022-11-12T14:15:37.023Z,6.05
2022-11-12T14:18:10.189Z,6.10
2022-11-12T14:20:40.470Z,7.22
2022-11-12T14:23:12.388Z,7.10
2022-11-12T14:25:47.366Z,7.40
2022-11-12T14:28:29.203Z,7.45
2022-11-12T14:30:57.249Z,7.13
2022-11-12T14:33:31.028Z,6.95
2022-11-12T14:36:03.901Z,7.20
2022-11-12T14:38:33.375Z,6.70
2022-11-12T14:41:08.867Z,7.50
2022-11-12T14:43:37.592Z,6.55
2022-11-12T14:46:06.557Z,6.43
2022-11-12T14:48:36.514Z,6.28
2022-11-12T14:51:09.997Z,6.38
2022-11-12T14:53:39.923Z,6.40
2022-11-12T14:56:09.052Z,6.75
2022-11-12T14:58:36.888Z,6.68
2022-11-12T15:01:44.994Z,7.60
2022-11-12T15:04:18.472Z,6.60
2022-11-12T15:06:54.261Z,7.50
2022-11-12T15:09:33.411Z,7.18
2022-11-12T15:12:01.282Z,7.30
2022-11-12T15:14:29.068Z,7.32
2022-11-12T15:16:56.848Z,6.70
2022-11-12T15:19:25.457Z,7.35
2022-11-12T15:21:55.702Z,6.88
2022-11-12T15:24:29.325Z,6.72
2022-11-12T15:26:58.112Z,7.43
2022-11-12T15:29:27.590Z,7.97
2022-11-12T15:31:56.435Z,9.55
2022-11-12T15:34:28.079Z,8.15
2022-11-12T15:36:57.494Z,7.53
2022-11-12T15:39:26.029Z,9.32
2022-11-12T15:42:00.257Z,11.68
2022-11-12T15:44:31.466Z,9.30
2022-11-12T15:46:59.962Z,8.50
2022-11-12T15:49:27.609Z,7.22
2022-11-12T15:51:55.228Z,7.68
2022-11-12T15:54:24.263Z,7.25
2022-11-12T15:56:52.137Z,7.90
2022-11-12T15:59:20.784Z,7.20
2022-11-12T16:01:48.538Z,6.95
2022-11-12T16:04:16.189Z,8.00
2022-11-12T16:06:43.832Z,7.35
2022-11-12T16:09:11.554Z,6.55
2022-11-12T16:11:40.646Z,8.63
2022-11-12T16:14:11.668Z,6.95
2022-11-12T16:16:40.386Z,7.40
2022-11-12T16:19:12.748Z,7.88
2022-11-12T16:21:40.817Z,7.57
2022-11-12T16:24:08.914Z,8.15
2022-11-12T16:26:36.871Z,10.90
2022-11-12T16:29:11.566Z,12.95
2022-11-12T16:31:39.227Z,13.07
2022-11-12T16:34:06.822Z,13.10
2022-11-12T16:36:34.469Z,12.43
2022-11-12T16:39:02.162Z,10.93
2022-11-12T16:41:29.970Z,11.07
2022-11-12T16:43:57.676Z,12.63
2022-11-12T16:46:29.114Z,23.95
2022-11-12T16:48:56.775Z,13.75
2022-11-12T16:51:24.701Z,11.98
2022-11-12T16:53:52.450Z,11.90
2022-11-12T16:56:21.044Z,9.85
2022-11-12T16:58:49.577Z,10.70
2022-11-12T17:01:24.471Z,10.13
2022-11-12T17:03:53.862Z,9.68
2022-11-12T17:06:21.821Z,10.63
2022-11-12T17:08:49.527Z,10.73
2022-11-12T17:11:17.192Z,10.63
2022-11-12T17:13:45.139Z,11.25
2022-11-12T17:16:12.944Z,12.70
2022-11-12T17:18:40.570Z,11.80
2022-11-12T17:21:14.798Z,10.57
2022-11-12T17:23:42.594Z,10.10
2022-11-12T17:26:11.985Z,9.75
2022-11-12T17:28:39.627Z,9.95
2022-11-12T17:31:08.475Z,8.80
2022-11-12T17:33:39.946Z,10.43
2022-11-12T17:36:08.692Z,12.20
2022-11-12T17:38:37.868Z,11.57
2022-11-12T17:41:05.851Z,12.77
2022-11-12T17:43:33.548Z,13.32
2022-11-12T17:46:01.227Z,12.82
2022-11-12T17:48:29.146Z,12.75
2022-11-12T17:51:05.477Z,13.07
2022-11-12T17:53:33.540Z,11.80
2022-11-12T17:56:02.684Z,13.15
2022-11-12T17:58:30.566Z,10.50
2022-11-12T18:00:58.219Z,12.02
2022-11-12T18:03:26.131Z,12.63
2022-11-12T18:05:57.958Z,14.18
2022-11-12T18:08:25.697Z,14.95
2022-11-12T18:10:56.487Z,14.38
2022-11-12T18:13:27.702Z,14.65
2022-11-12T18:16:01.546Z,14.05
2022-11-12T18:18:29.381Z,14.45
2022-11-12T18:20:57.721Z,14.38
2022-11-12T18:23:25.817Z,14.15
2022-11-12T18:25:53.751Z,14.25
2022-11-12T18:28:21.681Z,14.25
2022-11-12T18:30:50.680Z,13.05
2022-11-12T18:33:18.690Z,12.35
2022-11-12T18:35:46.356Z,14.60
2022-11-12T18:38:15.198Z,14.13
2022-11-12T18:40:42.811Z,13.65
2022-11-12T18:43:10.473Z,12.57
2022-11-12T18:45:39.372Z,12.50
2022-11-12T18:48:08.816Z,13.68
2022-11-12T18:50:36.438Z,17.23
2022-11-12T18:53:04.075Z,15.63
2022-11-12T18:55:31.753Z,13.07
2022-11-12T18:57:59.706Z,14.77
2022-11-12T19:00:27.522Z,16.80
2022-11-12T19:02:55.150Z,15.80
2022-11-12T19:05:24.158Z,14.30
2022-11-12T19:07:51.951Z,14.10
2022-11-12T19:10:19.719Z,12.52
2022-11-12T19:12:47.478Z,17.58
2022-11-12T19:15:15.148Z,18.98
2022-11-12T19:17:42.999Z,20.48
2022-11-12T19:20:11.286Z,21.85
2022-11-12T19:22:40.263Z,20.67
2022-11-12T19:25:08.222Z,21.27
2022-11-12T19:27:35.850Z,20.48
2022-11-12T19:30:05.822Z,17.27
2022-11-12T19:32:33.453Z,15.63
2022-11-12T19:35:01.146Z,17.60
2022-11-12T19:37:36.019Z,16.75
2022-11-12T19:40:07.290Z,17.48
2022-11-12T19:42:34.950Z,15.68
2022-11-12T19:45:02.845Z,15.63
2022-11-12T19:47:30.498Z,15.50
2022-11-12T19:49:58.150Z,14.52
2022-11-12T19:52:26.388Z,16.92
2022-11-12T19:54:54.016Z,15.98
2022-11-12T19:57:23.025Z,15.35
2022-11-12T19:59:50.666Z,13.70
2022-11-12T20:02:18.274Z,13.80
2022-11-12T20:04:45.928Z,13.73
2022-11-12T20:07:13.725Z,15.25
2022-11-12T20:09:41.372Z,13.45
2022-11-12T20:12:09.393Z,14.02
2022-11-12T20:14:38.399Z,14.75
2022-11-12T20:17:06.116Z,14.57
2022-11-12T20:19:33.815Z,17.58
2022-11-12T20:22:01.419Z,17.33
2022-11-12T20:24:29.122Z,18.27
2022-11-12T20:26:56.722Z,18.63
2022-11-12T20:29:24.567Z,15.55
2022-11-12T20:31:53.605Z,16.45
2022-11-12T20:34:21.216Z,15.70
2022-11-12T20:36:48.819Z,15.15
2022-11-12T20:39:16.591Z,13.38
2022-11-12T20:41:44.635Z,14.40
2022-11-12T20:44:13.532Z,16.27
2022-11-12T20:46:41.163Z,17.20
2022-11-12T20:49:10.169Z,14.93
2022-11-12T20:51:37.825Z,14.02
2022-11-12T20:54:05.680Z,12.55
2022-11-12T20:56:33.333Z,13.63
2022-11-12T20:59:01.117Z,14.35
2022-11-12T21:01:29.831Z,15.10
2022-11-12T21:03:57.781Z,15.70
2022-11-12T21:06:28.151Z,14.77
2022-11-12T21:08:58.095Z,16.40
2022-11-12T21:11:25.789Z,18.52
2022-11-12T21:13:53.421Z,16.98
2022-11-12T21:16:21.179Z,14.52
2022-11-12T21:18:48.807Z,15.25
2022-11-12T21:21:18.437Z,18.00
2022-11-12T21:23:47.450Z,18.00
2022-11-12T21:26:15.643Z,16.63
2022-11-12T21:28:43.481Z,15.75
2022-11-12T21:31:12.827Z,17.52
2022-11-12T21:33:40.697Z,17.15
2022-11-12T21:36:14.767Z,17.92
2022-11-12T21:38:44.093Z,16.23
2022-11-12T21:41:13.827Z,16.48
2022-11-12T21:43:43.188Z,17.35
2022-11-12T21:46:11.202Z,17.55
2022-11-12T21:48:38.872Z,16.48
2022-11-12T21:51:07.112Z,18.30
2022-11-12T21:53:34.956Z,15.43
2022-11-12T21:56:03.225Z,18.80
2022-11-12T21:58:32.461Z,20.55
2022-11-12T22:01:07.023Z,22.35
2022-11-12T22:03:34.667Z,22.07
2022-11-12T22:06:02.330Z,17.15
2022-11-12T22:08:30.308Z,13.50
2022-11-12T22:11:01.652Z,13.00
2022-11-12T22:13:29.450Z,13.15
2022-11-12T22:15:59.021Z,13.52
2022-11-12T22:18:26.957Z,15.90
2022-11-12T22:20:58.294Z,11.85
2022-11-12T22:23:26.238Z,13.75
2022-11-12T22:25:57.104Z,14.55
2022-11-12T22:28:25.108Z,16.75
2022-11-12T22:30:53.360Z,15.98
2022-11-12T22:33:22.636Z,16.13
2022-11-12T22:35:50.261Z,20.45
2022-11-12T22:38:17.971Z,22.77
2022-11-12T22:40:45.659Z,14.85
2022-11-12T22:43:13.280Z,16.20
2022-11-12T22:45:41.043Z,20.10
2022-11-12T22:48:08.638Z,18.90
2022-11-12T22:50:37.748Z,25.35
2022-11-12T22:53:05.382Z,16.05
2022-11-12T22:55:33.695Z,11.57
2022-11-12T22:58:01.493Z,15.55
2022-11-12T23:00:30.370Z,13.77
2022-11-12T23:02:57.986Z,31.35
2022-11-12T23:05:25.632Z,18.20
2022-11-12T23:07:54.629Z,23.73
2022-11-12T23:10:22.843Z,12.00
2022-11-12T23:12:50.501Z,17.50
2022-11-12T23:15:18.141Z,16.90
2022-11-12T23:17:45.730Z,17.88
2022-11-12T23:20:13.447Z,18.25
2022-11-12T23:22:41.036Z,19.98
2022-11-12T23:25:10.570Z,18.40
2022-11-12T23:27:38.174Z,18.05
2022-11-12T23:30:06.493Z,25.75
2022-11-12T23:32:34.125Z,16.90
2022-11-12T23:35:02.109Z,17.38
2022-11-12T23:37:29.807Z,16.77
2022-11-12T23:39:57.384Z,17.83
2022-11-12T23:42:26.379Z,17.38
2022-11-12T23:44:53.992Z,16.92
2022-11-12T23:47:21.645Z,18.83
2022-11-12T23:49:49.283Z,13.65
2022-11-12T23:52:18.909Z,12.88
2022-11-12T23:54:46.745Z,16.80
2022-11-12T23:57:14.378Z,16.42
2022-11-12T23:59:43.372Z,13.35
